M I D A S
Marine Information and Data Acquisition System
Tripno 645 of the Zeeleeuw from 2004-02-10 07:25:09 to 2004-02-10 16:58:56
Back to CruiseResearch ActivitiesStationsMapUnderway DataData graphs

EquipmentUnitsComment
TimeDGPSUTC
LatitudeDGPSDM.mWGS84
LongitudeDGPSDM.mWGS84
HeadingGyrodeg 
SOGDGPSknotsSpeed over ground
COGDGPSdegCourse over ground
DepthEcho soundermeters200 kHz
Missing or incorrect values are displayed as -999
Navigation data collected by the RV Zeeleeuw from 2004-02-10 07:25:09 to 2004-02-10 16:58:56
Time Latitude Longitude Heading SOG COG Depth
2004-02-10 07:26:14 51°13.606 2°56.05 117.1 3.4 293 -999
2004-02-10 07:27:15 51°13.639 2°55.948 120.8 4.7 298 -999
2004-02-10 07:28:15 51°13.669 2°55.831 103.5 4.8 285 -999
2004-02-10 07:29:14 51°13.682 2°55.785 58.4 1.7 31 11.1
2004-02-10 07:30:15 51°13.687 2°55.769 3.9 2.4 349 -999
2004-02-10 07:31:14 51°13.755 2°55.701 331.2 6.5 326 9
2004-02-10 07:32:15 51°13.868 2°55.602 339.5 8.2 336 9.5
2004-02-10 07:33:14 51°13.993 2°55.512 340.2 8.5 336 8.7
2004-02-10 07:34:14 51°14.126 2°55.415 339 9.5 334 8.2
2004-02-10 07:35:14 51°14.268 2°55.251 320.8 11.4 313 9.1
2004-02-10 07:36:14 51°14.398 2°55.011 320.1 12.3 315 9.8
2004-02-10 07:37:14 51°14.515 2°54.748 306.5 11.1 299 9.5
2004-02-10 07:38:14 51°14.595 2°54.531 312.6 8.8 304 9.3
2004-02-10 07:39:14 51°14.7 2°54.285 311.6 12.8 307 9.2
2004-02-10 07:40:14 51°14.823 2°53.984 304.8 13.8 298 8.5
2004-02-10 07:41:14 51°14.929 2°53.655 303.9 14 298 8.7
2004-02-10 07:42:14 51°15.044 2°53.327 306.2 14.1 300 8.6
2004-02-10 07:43:14 51°15.158 2°52.994 306.5 14.4 300 9.1
2004-02-10 07:44:14 51°15.261 2°52.646 301.6 14.6 295 10
2004-02-10 07:45:14 51°15.358 2°52.294 293.3 14.5 285 10.5
2004-02-10 07:46:14 51°15.405 2°51.917 283.5 14.6 278 10.9
2004-02-10 07:47:14 51°15.43 2°51.531 281.3 14.6 276 11.4
2004-02-10 07:48:14 51°15.457 2°51.146 281.5 14.6 277 11.6
2004-02-10 07:49:14 51°15.486 2°50.762 281.8 14.6 277 11.8
2004-02-10 07:50:14 51°15.514 2°50.378 282.3 14.5 277 11.9
2004-02-10 07:51:14 51°15.544 2°49.995 282.1 14.6 277 11.7
2004-02-10 07:52:14 51°15.572 2°49.611 282.1 14.6 277 11.9
2004-02-10 07:53:14 51°15.601 2°49.228 282.1 14.5 278 10.4
2004-02-10 07:54:14 51°15.631 2°48.849 282.3 14.4 277 9.2
2004-02-10 07:55:14 51°15.662 2°48.467 282 14.7 277 9.7
2004-02-10 07:56:14 51°15.692 2°48.079 282.1 14.9 277 10.7
2004-02-10 07:57:14 51°15.723 2°47.691 282.8 14.8 276 12.7
2004-02-10 07:58:14 51°15.752 2°47.299 282.2 14.8 278 13.9
2004-02-10 07:59:15 51°15.784 2°46.903 282.9 14.8 278 15.3
2004-02-10 08:00:14 51°15.813 2°46.523 282.4 14.6 278 15.6
2004-02-10 08:01:14 51°15.842 2°46.138 282.5 14.5 278 14.7
2004-02-10 08:02:14 51°15.871 2°45.753 282.4 14.6 276 12.9
2004-02-10 08:03:14 51°15.9 2°45.37 282.3 14.3 277 10.6
2004-02-10 08:04:14 51°15.943 2°44.99 288.8 14.7 283 10.7
2004-02-10 08:05:14 51°16.036 2°44.643 309.1 14.3 303 9.6
2004-02-10 08:06:14 51°16.177 2°44.34 316.1 14.2 309 9.4
2004-02-10 08:07:14 51°16.341 2°44.06 321.2 14.5 313 11.3
2004-02-10 08:08:14 51°16.51 2°43.788 323.1 14.4 316 12.8
2004-02-10 08:09:14 51°16.682 2°43.527 323.9 14.2 317 12.3
2004-02-10 08:10:14 51°16.86 2°43.279 326 14.4 318 11.9
2004-02-10 08:11:14 51°17.039 2°43.026 325.8 14.4 318 11.2
2004-02-10 08:12:14 51°17.214 2°42.774 324.9 14 317 9.5
2004-02-10 08:13:14 51°17.405 2°42.526 332.5 15.3 325 18.4
2004-02-10 08:14:14 51°17.604 2°42.303 331.6 14.3 324 21.6
2004-02-10 08:15:14 51°17.797 2°42.088 337 14 330 22.5
2004-02-10 08:16:14 51°18.012 2°41.958 351 13.7 343 22.6
2004-02-10 08:17:14 51°18.23 2°41.844 349.6 13.9 342 21.8
2004-02-10 08:18:14 51°18.45 2°41.724 349.1 14.1 341 21.5
2004-02-10 08:19:14 51°18.671 2°41.599 347.9 13.9 340 19
2004-02-10 08:20:14 51°18.897 2°41.551 2.7 13.8 354 18.7
2004-02-10 08:21:14 51°19.114 2°41.529 7.6 10.5 359 18.6
2004-02-10 08:22:14 51°19.198 2°41.536 25.9 1.3 2 16.7
2004-02-10 08:23:14 51°19.203 2°41.526 33.2 0.5 307 16.1
2004-02-10 08:24:14 51°19.208 2°41.519 23.5 0.6 318 17
2004-02-10 08:25:14 51°19.215 2°41.509 12.8 0.7 307 17.8
2004-02-10 08:26:14 51°19.221 2°41.495 6.3 0.5 311 18.2
2004-02-10 08:27:14 51°19.226 2°41.48 3.1 0.9 288 18.5
2004-02-10 08:28:14 51°19.231 2°41.467 0.7 0.9 320 18.7
2004-02-10 08:29:14 51°19.266 2°41.506 78.1 3.7 84 15.8
2004-02-10 08:30:14 51°19.21 2°41.568 176.5 5.7 188 18.8
2004-02-10 08:31:14 51°19.141 2°41.424 265.3 8.6 264 17.3
2004-02-10 08:32:14 51°19.172 2°41.16 291 11.5 283 15.7
2004-02-10 08:33:14 51°19.217 2°40.853 291.7 10.7 284 17.9
2004-02-10 08:34:14 51°19.268 2°40.667 320.8 5.9 310 15.7
2004-02-10 08:35:14 51°19.309 2°40.612 17.2 1.3 310 14
2004-02-10 08:36:14 51°19.322 2°40.601 47.9 0.8 356 14.4
2004-02-10 08:37:14 51°19.34 2°40.607 47.4 1.3 16 13.4
2004-02-10 08:38:14 51°19.354 2°40.627 74.9 1.1 61 13.7
2004-02-10 08:39:14 51°19.354 2°40.655 92.3 1.2 95 16.4
2004-02-10 08:40:14 51°19.35 2°40.684 102.6 1.1 116 14.4
2004-02-10 08:41:14 51°19.335 2°40.703 125.9 1.1 144 11.9
2004-02-10 08:42:14 51°19.312 2°40.705 152.4 1.4 186 13.4
2004-02-10 08:43:14 51°19.29 2°40.694 166 1.2 194 15.5
2004-02-10 08:44:14 51°19.271 2°40.681 163.9 1.3 200 16.4
2004-02-10 08:45:14 51°19.251 2°40.671 154 1.3 198 14.9
2004-02-10 08:46:14 51°19.232 2°40.659 138 0.9 189 12.3
2004-02-10 08:47:14 51°19.214 2°40.657 138.6 1.2 180 13.8
2004-02-10 08:48:14 51°19.19 2°40.649 169.5 1.6 198 15.7
2004-02-10 08:49:14 51°19.162 2°40.629 188.8 2 212 17.6
2004-02-10 08:50:14 51°19.122 2°40.534 267.3 6 261 14.6
2004-02-10 08:51:14 51°19.186 2°40.438 20.6 5.4 5 15.6
2004-02-10 08:52:14 51°19.241 2°40.556 67.1 5.8 57 17.7
2004-02-10 08:53:14 51°19.291 2°40.656 55.2 3.6 38 15.3
2004-02-10 08:54:14 51°19.311 2°40.658 28.2 0.8 329 16.1
2004-02-10 08:55:14 51°19.321 2°40.64 17.2 1 300 14.5
2004-02-10 08:56:14 51°19.328 2°40.614 8.9 1.1 299 13.2
2004-02-10 08:57:14 51°19.343 2°40.592 14.4 1.3 330 14.1
2004-02-10 08:58:14 51°19.364 2°40.579 29.1 1.3 352 14.1
2004-02-10 08:59:14 51°19.383 2°40.57 32.5 1.1 343 13.7
2004-02-10 09:00:14 51°19.399 2°40.559 27.5 1 335 13.5
2004-02-10 09:01:14 51°19.413 2°40.545 20.8 1 320 13.4
2004-02-10 09:02:14 51°19.434 2°40.525 8.9 2.5 337 12.9
2004-02-10 09:03:14 51°19.473 2°40.429 290.4 5.6 275 12.6
2004-02-10 09:04:14 51°19.424 2°40.318 193.6 5 197 18.8
2004-02-10 09:05:14 51°19.326 2°40.324 180.6 6.9 185 16.9
2004-02-10 09:06:14 51°19.212 2°40.311 178.7 6 185 17.5
2004-02-10 09:07:14 51°19.155 2°40.357 108 2.9 118 17.3
2004-02-10 09:08:14 51°19.149 2°40.372 72.6 0.1 92 16.9
2004-02-10 09:09:14 51°19.154 2°40.381 63.5 0.6 45 17
2004-02-10 09:10:14 51°19.162 2°40.393 60.8 0.7 39 16.6
2004-02-10 09:11:14 51°19.171 2°40.403 60.6 0.7 29 16.2
2004-02-10 09:12:14 51°19.18 2°40.412 58.4 0.7 9 15.8
2004-02-10 09:13:14 51°19.188 2°40.418 56.9 0.6 8 15.7
2004-02-10 09:14:14 51°19.197 2°40.422 55.8 0.6 2 15.5
2004-02-10 09:15:14 51°19.205 2°40.424 51.9 0.7 343 15.5
2004-02-10 09:16:14 51°19.213 2°40.422 44.4 0.7 334 15.5
2004-02-10 09:17:14 51°19.222 2°40.414 35.7 0.7 331 15.4
2004-02-10 09:18:14 51°19.23 2°40.401 24.5 0.7 307 15.3
2004-02-10 09:19:14 51°19.238 2°40.383 15.8 0.8 300 15.3
2004-02-10 09:20:14 51°19.244 2°40.362 6.8 1 291 15.8
2004-02-10 09:21:14 51°19.248 2°40.339 359.5 0.9 293 16.5
2004-02-10 09:22:14 51°19.273 2°40.275 300.6 4 289 18.2
2004-02-10 09:23:14 51°19.229 2°40.162 198 6 201 20.1
2004-02-10 09:24:14 51°19.111 2°40.226 152.1 9.5 156 19.6
2004-02-10 09:25:14 51°18.951 2°40.345 150.5 10.9 155 18.9
2004-02-10 09:26:14 51°18.783 2°40.464 151.6 10.4 156 17
2004-02-10 09:27:14 51°18.679 2°40.574 125.3 6.1 134 11
2004-02-10 09:28:14 51°18.618 2°40.658 128.9 2.8 145 18
2004-02-10 09:29:14 51°18.603 2°40.676 97.5 0.6 130 18
2004-02-10 09:30:14 51°18.594 2°40.69 93.6 0.7 121 17.3
2004-02-10 09:31:14 51°18.591 2°40.707 76.5 0.6 81 16.6
2004-02-10 09:32:14 51°18.596 2°40.721 53.7 0.7 57 15.5
2004-02-10 09:33:14 51°18.61 2°40.722 31 0.9 356 14.8
2004-02-10 09:34:14 51°18.624 2°40.711 14.1 0.9 321 15.5
2004-02-10 09:35:14 51°18.633 2°40.693 2.7 0.9 305 16.7
2004-02-10 09:36:14 51°18.643 2°40.673 3.8 1 316 17.3
2004-02-10 09:37:15 51°18.656 2°40.653 5.8 1.1 324 17.2
2004-02-10 09:38:14 51°18.673 2°40.64 24.9 1 344 16.8
2004-02-10 09:39:14 51°18.687 2°40.642 51.7 0.8 26 16.7
2004-02-10 09:40:14 51°18.695 2°40.654 59.8 0.5 56 16.9
2004-02-10 09:41:14 51°18.7 2°40.664 57.7 0.5 62 16.7
2004-02-10 09:42:14 51°18.705 2°40.671 53.1 0.4 33 16.6
2004-02-10 09:43:14 51°18.716 2°40.676 33.2 1.7 8 16.3
2004-02-10 09:44:14 51°18.754 2°40.635 325.6 3.7 305 15.9
2004-02-10 09:45:14 51°18.756 2°40.517 255.5 5.7 253 14.7
2004-02-10 09:46:14 51°18.7 2°40.361 241.2 6.3 238 19.5
2004-02-10 09:47:14 51°18.668 2°40.278 222.8 1.4 227 20.6
2004-02-10 09:48:14 51°18.657 2°40.257 185.3 0.9 224 20.8
2004-02-10 09:49:14 51°18.645 2°40.243 160.6 0.8 204 20.9
2004-02-10 09:50:14 51°18.612 2°40.287 108.1 4.3 114 20.4
2004-02-10 09:51:14 51°18.613 2°40.422 83.3 5.3 83 12.1
2004-02-10 09:52:14 51°18.615 2°40.528 94.4 2.7 94 15.6
2004-02-10 09:53:14 51°18.611 2°40.55 74.7 0.8 107 15.7
2004-02-10 09:54:14 51°18.608 2°40.566 85.5 0.7 117 14.8
2004-02-10 09:55:14 51°18.596 2°40.582 108.3 1.1 152 13.4
2004-02-10 09:56:14 51°18.575 2°40.589 136.4 1.5 178 13.3
2004-02-10 09:57:14 51°18.527 2°40.644 113.4 5.8 116 17.5
2004-02-10 09:58:14 51°18.517 2°40.734 81.3 1.8 96 16
2004-02-10 09:59:14 51°18.5 2°40.753 116.9 1.4 166 15.5
2004-02-10 10:00:14 51°18.478 2°40.758 129 1.5 181 15.8
2004-02-10 10:01:14 51°18.452 2°40.825 90 4 97 13.9
2004-02-10 10:02:14 51°18.442 2°40.917 91.7 3.1 104 13.8
2004-02-10 10:03:14 51°18.427 2°40.96 109.7 1.1 180 15.4
2004-02-10 10:04:14 51°18.409 2°40.951 132 1.6 211 13.5
2004-02-10 10:05:14 51°18.389 2°40.936 147.4 1.3 206 14.5
2004-02-10 10:06:15 51°18.356 2°40.994 90.1 3.6 103 16.6
2004-02-10 10:07:14 51°18.347 2°41.113 98.3 4.6 106 18.3
2004-02-10 10:08:15 51°18.319 2°41.171 111.3 1.4 189 15.2
2004-02-10 10:09:14 51°18.297 2°41.168 131.5 1.4 183 17.2
2004-02-10 10:10:14 51°18.273 2°41.161 145.4 1.3 191 18.5
2004-02-10 10:11:14 51°18.241 2°41.198 97.3 3.7 108 17.4
2004-02-10 10:12:14 51°18.257 2°41.319 74.5 4.9 78 19.8
2004-02-10 10:13:15 51°18.256 2°41.403 94.8 1.5 134 20.5
2004-02-10 10:14:14 51°18.237 2°41.415 112.3 1.2 161 20.6
2004-02-10 10:15:14 51°18.214 2°41.417 126.7 1.4 183 19.9
2004-02-10 10:16:14 51°18.175 2°41.421 156.3 3.9 173 19
2004-02-10 10:17:14 51°18.093 2°41.332 251.8 5.7 244 20.5
2004-02-10 10:18:14 51°18.078 2°41.243 307.4 1.3 234 20
2004-02-10 10:19:14 51°18.066 2°41.218 342.2 1 233 20.2
2004-02-10 10:20:14 51°18.054 2°41.196 349.5 1.1 236 19.3
2004-02-10 10:21:14 51°18.044 2°41.173 345.9 1 235 18.6
2004-02-10 10:22:14 51°18.037 2°41.149 332.5 1.2 273 19.6
2004-02-10 10:23:14 51°18.038 2°41.083 291.2 3.5 270 19.4
2004-02-10 10:24:14 51°18.031 2°40.963 276.6 5.2 259 17.9
2004-02-10 10:25:14 51°18.001 2°40.825 251.1 5.8 241 16.8
2004-02-10 10:26:15 51°17.94 2°40.694 240.8 6.2 235 14.6
2004-02-10 10:27:14 51°17.879 2°40.558 242.1 6.5 236 15.4
2004-02-10 10:28:15 51°17.824 2°40.407 246.6 6.6 240 12.3
2004-02-10 10:29:15 51°17.77 2°40.245 261.2 7.7 260 12.5
2004-02-10 10:30:14 51°17.835 2°40.138 17.3 5.6 11 13.2
2004-02-10 10:31:15 51°17.873 2°40.282 75.4 7.1 74 14.7
2004-02-10 10:32:15 51°17.936 2°40.448 59.2 7 55 14.3
2004-02-10 10:33:14 51°17.991 2°40.586 62.4 6 60 14.5
2004-02-10 10:34:14 51°18.037 2°40.713 62.1 5.3 59 15.7
2004-02-10 10:35:14 51°18.078 2°40.834 64.7 5.1 63 15.1
2004-02-10 10:36:14 51°18.116 2°40.955 64.2 5 65 17.5
2004-02-10 10:37:14 51°18.153 2°41.076 64.5 5.2 66 18.5
2004-02-10 10:38:14 51°18.197 2°41.131 15.8 3.5 351 19.1
2004-02-10 10:39:15 51°18.232 2°41.052 316.2 2.8 279 17.6
2004-02-10 10:40:14 51°18.22 2°41.025 318 1.1 227 17.1
2004-02-10 10:41:14 51°18.209 2°41.004 333.8 1.1 225 18
2004-02-10 10:42:14 51°18.208 2°40.976 338.9 2.8 312 16.4
2004-02-10 10:43:14 51°18.262 2°40.842 321.8 5.8 302 12.8
2004-02-10 10:44:15 51°18.274 2°40.772 330.7 1.4 210 15.9
2004-02-10 10:45:14 51°18.256 2°40.753 350.8 1.2 219 16.6
2004-02-10 10:46:15 51°18.242 2°40.733 354.2 1 216 17.4
2004-02-10 10:47:15 51°18.229 2°40.714 354.6 0.9 241 16.8
2004-02-10 10:48:14 51°18.284 2°40.647 344.2 6.6 328 16.8
2004-02-10 10:49:15 51°18.369 2°40.615 19 4 358 14.2
2004-02-10 10:50:15 51°18.382 2°40.605 50.8 0.3 224 14.4
2004-02-10 10:51:14 51°18.386 2°40.599 27.6 0.7 321 14.8
2004-02-10 10:52:14 51°18.424 2°40.555 345.5 5.1 326 17.6
2004-02-10 10:53:14 51°18.477 2°40.447 314.2 4.5 296 14.7
2004-02-10 10:54:14 51°18.488 2°40.38 319.1 1.5 248 11.6
2004-02-10 10:55:14 51°18.484 2°40.346 329.6 1.3 263 -999
2004-02-10 10:56:14 51°18.486 2°40.315 343.1 1.6 302 14.3
2004-02-10 10:57:15 51°18.523 2°40.258 339.6 3.8 319 20.2
2004-02-10 10:58:15 51°18.57 2°40.187 336.8 3.3 311 22.5
2004-02-10 10:59:14 51°18.569 2°40.16 334 0.9 229 22.7
2004-02-10 11:00:14 51°18.561 2°40.145 341.4 0.6 232 23
2004-02-10 11:01:14 51°18.556 2°40.129 340.3 0.8 260 23
2004-02-10 11:02:15 51°18.568 2°40.058 289.9 4 274 23.5
2004-02-10 11:03:15 51°18.527 2°39.957 211.2 5.2 210 24.1
2004-02-10 11:04:14 51°18.464 2°39.999 108 4.3 113 24.3
2004-02-10 11:05:15 51°18.428 2°40.201 111.3 9.3 115 18.6
2004-02-10 11:06:14 51°18.391 2°40.344 90.9 4.2 92 12.2
2004-02-10 11:07:14 51°18.381 2°40.437 101.9 3.1 116 15.7
2004-02-10 11:08:14 51°18.359 2°40.451 140.9 1.3 183 15.5
2004-02-10 11:09:14 51°18.334 2°40.45 146.5 1.6 176 15.8
2004-02-10 11:10:14 51°18.297 2°40.476 118.6 3 136 16.1
2004-02-10 11:11:14 51°18.31 2°40.532 37.9 1.9 24 18.7
2004-02-10 11:12:14 51°18.32 2°40.532 32 0.5 338 18.5
2004-02-10 11:13:15 51°18.326 2°40.529 39.9 0.5 348 18.6
2004-02-10 11:14:14 51°18.328 2°40.563 93.8 2.6 111 18
2004-02-10 11:15:15 51°18.287 2°40.61 137.9 3.1 156 17.8
2004-02-10 11:16:15 51°18.254 2°40.623 134.6 1.3 199 18.3
2004-02-10 11:17:14 51°18.233 2°40.615 146.9 1.5 189 18.7
2004-02-10 11:18:14 51°18.205 2°40.613 147.9 1.9 180 18.2
2004-02-10 11:19:14 51°18.174 2°40.662 85.2 3 92 15.2
2004-02-10 11:20:14 51°18.213 2°40.719 44.2 3.2 35 17.3
2004-02-10 11:21:14 51°18.241 2°40.734 32.4 0.4 313 17.8
2004-02-10 11:22:15 51°18.246 2°40.721 16.2 0.8 295 18
2004-02-10 11:23:14 51°18.254 2°40.703 13.2 0.9 330 17.5
2004-02-10 11:24:15 51°18.274 2°40.744 84.5 3.4 102 17.8
2004-02-10 11:25:15 51°18.203 2°40.784 178.3 6.1 195 16.1
2004-02-10 11:26:14 51°18.144 2°40.657 274.3 6.3 264 15
2004-02-10 11:27:14 51°18.189 2°40.569 1.4 2.6 336 18.2
2004-02-10 11:28:14 51°18.202 2°40.55 9.9 0.9 320 18.3
2004-02-10 11:29:14 51°18.212 2°40.527 349.3 1.3 300 18.4
2004-02-10 11:30:14 51°18.231 2°40.484 338.4 3.1 315 18.3
2004-02-10 11:31:14 51°18.276 2°40.408 331.5 4.3 312 17.9
2004-02-10 11:32:14 51°18.294 2°40.359 337.2 0.9 247 14.1
2004-02-10 11:33:15 51°18.293 2°40.329 338.9 1.1 282 11.9
2004-02-10 11:34:14 51°18.301 2°40.298 337.3 1.4 299 14
2004-02-10 11:35:14 51°18.307 2°40.269 331 1.1 279 14.1
2004-02-10 11:36:14 51°18.308 2°40.246 334.9 0.9 267 14.1
2004-02-10 11:37:15 51°18.307 2°40.227 334.3 0.6 264 14.3
2004-02-10 11:38:15 51°18.304 2°40.212 338.2 0.7 253 13.7
2004-02-10 11:39:15 51°18.301 2°40.196 338.1 0.6 248 12.8
2004-02-10 11:40:14 51°18.299 2°40.183 340.7 0.4 255 12.5
2004-02-10 11:41:14 51°18.296 2°40.172 343.7 0.4 241 12.9
2004-02-10 11:42:15 51°18.291 2°40.162 343.6 0.4 228 13.2
2004-02-10 11:43:14 51°18.288 2°40.154 343.8 0.5 230 13.7
2004-02-10 11:44:15 51°18.283 2°40.145 346.6 0.4 227 14.1
2004-02-10 11:45:15 51°18.279 2°40.138 346.9 0.4 218 14.1
2004-02-10 11:46:15 51°18.275 2°40.131 346.2 0.2 245 13.9
2004-02-10 11:47:14 51°18.273 2°40.123 348 0.5 255 14.1
2004-02-10 11:48:15 51°18.27 2°40.116 347.4 0.5 239 13.4
2004-02-10 11:49:14 51°18.267 2°40.107 345.1 0.3 243 12.4
2004-02-10 11:50:14 51°18.267 2°40.095 349.8 0.6 296 11.9
2004-02-10 11:51:15 51°18.276 2°40.08 357.3 0.8 320 13.1
2004-02-10 11:52:15 51°18.289 2°40.066 0.1 1 330 16.5
2004-02-10 11:53:15 51°18.304 2°40.053 1.4 1.1 339 19.5
2004-02-10 11:54:14 51°18.321 2°40.044 4.9 1.1 341 21
2004-02-10 11:55:15 51°18.338 2°40.037 7.2 1.1 346 22.5
2004-02-10 11:56:15 51°18.355 2°40.032 10.5 1 359 23.6
2004-02-10 11:57:14 51°18.378 2°40.04 31.7 2.3 28 24.2
2004-02-10 11:58:15 51°18.382 2°40.119 110.4 3.9 120 21.1
2004-02-10 11:59:15 51°18.322 2°40.156 165.4 3.8 170 13.9
2004-02-10 12:00:14 51°18.271 2°40.167 165 2.6 174 13.6
2004-02-10 12:01:14 51°18.246 2°40.168 176.5 1.3 183 14.3
2004-02-10 12:02:14 51°18.225 2°40.165 176.8 1.2 189 15.1
2004-02-10 12:03:14 51°18.202 2°40.165 170.7 1.6 178 15.8
2004-02-10 12:04:15 51°18.174 2°40.167 162 1.9 175 17.2
2004-02-10 12:05:14 51°18.142 2°40.181 145.6 2.2 152 18.6
2004-02-10 12:06:14 51°18.111 2°40.224 105.5 2.6 115 19.2
2004-02-10 12:07:15 51°18.124 2°40.276 38.4 2.2 28 18.8
2004-02-10 12:08:14 51°18.166 2°40.267 347.7 3.1 329 18.8
2004-02-10 12:09:15 51°18.208 2°40.197 324 4 311 16.7
2004-02-10 12:10:14 51°18.26 2°40.135 353.4 4.1 345 14.6
2004-02-10 12:11:14 51°18.289 2°40.144 41.3 0.5 60 14.5
2004-02-10 12:12:14 51°18.294 2°40.162 41.3 0.7 57 13.8
2004-02-10 12:13:14 51°18.301 2°40.174 27 0.6 51 13
2004-02-10 12:14:14 51°18.306 2°40.178 17.5 0.4 11 13
2004-02-10 12:15:15 51°18.31 2°40.18 10.2 0.2 5 12.9
2004-02-10 12:16:15 51°18.338 2°40.244 80.6 5.3 89 15
2004-02-10 12:17:14 51°18.255 2°40.302 190.4 5.8 190 15.8
2004-02-10 12:18:14 51°18.211 2°40.288 180.4 0.5 175 17.9
2004-02-10 12:19:15 51°18.2 2°40.291 154.5 1 168 18.3
2004-02-10 12:20:14 51°18.176 2°40.313 132 3.4 134 18.9
2004-02-10 12:21:15 51°18.17 2°40.388 69.7 2.3 79 16.9
2004-02-10 12:22:14 51°18.171 2°40.41 53.7 0.6 90 19.5
2004-02-10 12:23:14 51°18.177 2°40.43 40.8 1.1 57 20.7
2004-02-10 12:24:14 51°18.189 2°40.477 78.3 3.1 90 20.2
2004-02-10 12:25:14 51°18.146 2°40.543 158.5 4.3 161 19
2004-02-10 12:26:16 51°18.117 2°40.55 191.2 0.9 32 -999
2004-02-10 12:27:15 51°18.147 2°40.543 161.8 2.4 339 19.1
2004-02-10 12:28:14 51°18.153 2°40.535 144.5 0.2 152 19.5
2004-02-10 12:29:14 51°18.121 2°40.562 160.7 4.1 158 18.3
2004-02-10 12:30:14 51°18.071 2°40.608 132.3 1.7 143 17.9
2004-02-10 12:31:14 51°18.054 2°40.627 146.6 1.5 143 17.6
2004-02-10 12:32:14 51°18.027 2°40.642 176 1.8 168 17.6
2004-02-10 12:33:14 51°17.987 2°40.64 208.3 4 198 17.8
2004-02-10 12:34:14 51°17.961 2°40.544 297.3 4.1 286 16.6
2004-02-10 12:35:15 51°18.03 2°40.487 342.5 4.9 337 17.2
2004-02-10 12:36:14 51°18.065 2°40.45 329.7 0.8 338 18.7
2004-02-10 12:37:15 51°18.072 2°40.452 322.1 0.6 90 18.4
2004-02-10 12:38:14 51°18.073 2°40.465 333.7 0.6 76 18.1
2004-02-10 12:39:14 51°18.086 2°40.47 338.4 2.4 338 18.8
2004-02-10 12:40:14 51°18.114 2°40.357 295.7 5.5 289 19.4
2004-02-10 12:41:14 51°18.151 2°40.245 306.5 4.1 299 19.8
2004-02-10 12:42:14 51°18.164 2°40.223 319.3 0.4 14 19.4
2004-02-10 12:43:14 51°18.17 2°40.232 337.3 0.6 35 19.3
2004-02-10 12:44:14 51°18.196 2°40.209 314.1 4 308 18.1
2004-02-10 12:45:14 51°18.225 2°40.085 309.5 4.6 308 12.3
2004-02-10 12:46:15 51°18.27 2°40.037 316.4 2.4 318 19.1
2004-02-10 12:47:16 51°18.275 2°40.049 319.4 2.1 115 -999
2004-02-10 12:48:14 51°18.287 2°40.02 279.7 2.7 273 22.1
2004-02-10 12:49:15 51°18.27 2°39.992 226 0.7 113 22.4
2004-02-10 12:50:14 51°18.266 2°40.021 185.9 1.1 107 20.6
2004-02-10 12:51:14 51°18.256 2°40.049 175.6 1.3 129 16.7
2004-02-10 12:52:14 51°18.202 2°40.046 222.2 4.4 203 14.4
2004-02-10 12:53:14 51°18.178 2°39.961 281.4 2.7 277 16.1
2004-02-10 12:54:15 51°18.184 2°39.948 304.6 0.7 58 18.4
2004-02-10 12:55:15 51°18.193 2°39.962 315 0.9 37 17.9
2004-02-10 12:56:14 51°18.208 2°39.949 285.4 1.8 286 21.1
2004-02-10 12:57:14 51°18.168 2°39.921 186.5 4.9 169 18.8
2004-02-10 12:58:14 51°18.116 2°40.022 111.4 4 110 16.5
2004-02-10 12:59:14 51°18.114 2°40.051 115.5 0.6 340 -999
2004-02-10 13:00:16 51°18.119 2°40.047 101.6 0.4 91 -999
2004-02-10 13:01:15 51°18.119 2°40.074 99.4 1.4 87 14.6
2004-02-10 13:02:15 51°18.115 2°40.128 107.4 2.8 94 20.4
2004-02-10 13:03:14 51°18.11 2°40.182 126.2 1.1 82 20.6
2004-02-10 13:04:16 51°18.111 2°40.215 146.8 1.3 94 20.7
2004-02-10 13:05:14 51°18.102 2°40.252 171.3 1.6 123 20.2
2004-02-10 13:06:14 51°18.086 2°40.29 185.3 1.5 135 19.6
2004-02-10 13:07:16 51°18.069 2°40.323 197.8 1.5 126 19.9
2004-02-10 13:08:14 51°18.059 2°40.357 198.1 1.7 104 20.1
2004-02-10 13:09:14 51°18.024 2°40.347 245.2 3 234 19.3
2004-02-10 13:10:14 51°18.059 2°40.256 319.7 5.7 322 20.1
2004-02-10 13:11:15 51°18.097 2°40.195 280.4 1.7 282 21
2004-02-10 13:12:14 51°18.084 2°40.161 245 0.8 179 21.1
2004-02-10 13:13:14 51°18.073 2°40.19 216.4 1.5 112 21
2004-02-10 13:14:16 51°18.067 2°40.239 191.2 2.1 98 20.2
2004-02-10 13:15:14 51°18.06 2°40.285 178.5 1.7 109 20.2
2004-02-10 13:16:15 51°18.041 2°40.335 178 2.3 136 19.7
2004-02-10 13:17:14 51°18.016 2°40.381 178.7 2.4 124 19.5
2004-02-10 13:18:15 51°17.994 2°40.427 184.3 2.5 125 17.3
2004-02-10 13:19:16 51°17.961 2°40.451 218.1 2.9 191 17.1
2004-02-10 13:20:14 51°17.964 2°40.385 312.5 4.6 321 17.8
2004-02-10 13:21:14 51°18.037 2°40.298 306.2 4.4 318 20.2
2004-02-10 13:22:15 51°18.059 2°40.265 279.1 0.6 13 20.7
2004-02-10 13:23:15 51°18.066 2°40.288 272.3 1.3 84 20.1
2004-02-10 13:24:14 51°18.071 2°40.338 272.4 2.3 81 20.7
2004-02-10 13:25:16 51°18.072 2°40.373 251.8 0.5 132 20.5
2004-02-10 13:26:16 51°18.03 2°40.388 204.8 3.8 176 19.6
2004-02-10 13:27:15 51°18.001 2°40.38 244.8 1 160 19.1
2004-02-10 13:28:14 51°17.994 2°40.407 248.7 1.6 100 18.2
2004-02-10 13:29:14 51°17.993 2°40.457 240.2 2.2 89 17.8
2004-02-10 13:30:14 51°17.96 2°40.476 217.9 2.3 169 15.7
2004-02-10 13:31:14 51°17.942 2°40.509 226 1.9 113 19
2004-02-10 13:32:14 51°17.937 2°40.564 208 2.3 90 18.1
2004-02-10 13:33:16 51°17.939 2°40.627 180.1 2.1 87 18.4
2004-02-10 13:34:14 51°17.937 2°40.687 170.9 2.5 99 16.8
2004-02-10 13:35:14 51°17.905 2°40.735 208.3 3.3 179 18.6
2004-02-10 13:36:15 51°17.899 2°40.66 297.2 4.8 307 18.4
2004-02-10 13:37:14 51°17.937 2°40.555 281.9 3.1 288 18.3
2004-02-10 13:38:14 51°17.958 2°40.466 288.4 3.3 297 16.1
2004-02-10 13:39:16 51°17.981 2°40.466 300.1 1.6 47 17
2004-02-10 13:40:15 51°18 2°40.507 313.6 2 51 19.4
2004-02-10 13:41:15 51°18.022 2°40.534 301.4 1.5 336 19.7
2004-02-10 13:42:15 51°18.009 2°40.486 247.3 4.2 238 18.3
2004-02-10 13:43:16 51°17.956 2°40.366 234 5 223 18.6
2004-02-10 13:44:15 51°17.943 2°40.291 269.2 2.5 272 19.7
2004-02-10 13:45:14 51°17.94 2°40.266 264.8 0.5 91 18.8
2004-02-10 13:46:15 51°17.949 2°40.293 276.1 1.5 61 19.8
2004-02-10 13:47:15 51°17.963 2°40.342 296.1 2.1 64 19.4
2004-02-10 13:48:15 51°17.984 2°40.383 301.5 1.7 359 18.8
2004-02-10 13:49:15 51°17.98 2°40.335 251.9 4.6 253 19.7
2004-02-10 13:50:14 51°18.003 2°40.189 288.1 6.7 294 21.8
2004-02-10 13:51:15 51°18.027 2°40.072 290.6 3 318 21.8
2004-02-10 13:52:14 51°18.052 2°40.081 290 1.6 34 21.1
2004-02-10 13:53:15 51°18.072 2°40.117 282.9 1.8 55 20.2
2004-02-10 13:54:15 51°18.089 2°40.14 269.9 1 286 22.1
2004-02-10 13:55:15 51°18.076 2°40.065 271.6 4.5 278 19.7
2004-02-10 13:56:14 51°18.104 2°39.923 286.2 6.1 292 17.2
2004-02-10 13:57:16 51°18.133 2°39.858 279.2 1.4 358 22.4
2004-02-10 13:58:16 51°18.149 2°39.875 269.4 1.3 50 22.6
2004-02-10 13:59:15 51°18.162 2°39.911 256.6 1.7 65 21
2004-02-10 14:00:14 51°18.144 2°39.942 192.6 3.3 155 16.6
2004-02-10 14:01:16 51°18.097 2°39.908 263.2 3.9 264 17.5
2004-02-10 14:02:16 51°18.059 2°39.811 234 4.9 214 19.2
2004-02-10 14:03:14 51°18.027 2°39.81 236.8 1.4 101 17.7
2004-02-10 14:04:14 51°18.029 2°39.868 240.7 2.5 83 14.3
2004-02-10 14:05:15 51°18.036 2°39.939 219.9 2.9 78 18.1
2004-02-10 14:06:14 51°18.023 2°39.993 211.8 3.1 166 19.9
2004-02-10 14:07:14 51°17.999 2°39.916 260.5 5.2 257 20.1
2004-02-10 14:08:14 51°17.985 2°39.877 232.1 1 148 17.4
2004-02-10 14:09:14 51°17.973 2°39.916 213 1.8 101 22.3
2004-02-10 14:10:16 51°17.975 2°39.981 204.8 2.4 84 22.9
2004-02-10 14:11:15 51°17.964 2°40.024 227.3 1.2 162 22.2
2004-02-10 14:12:16 51°17.963 2°40.038 262.8 1.1 77 22.3
2004-02-10 14:13:15 51°17.972 2°40.076 254.8 1.9 67 21.7
2004-02-10 14:14:14 51°17.986 2°40.132 250.9 2.4 69 21
2004-02-10 14:15:14 51°17.968 2°40.155 220.9 3.5 197 20.2
2004-02-10 14:16:14 51°17.922 2°40.12 229.8 2.3 197 21
2004-02-10 14:17:14 51°17.902 2°40.126 235.1 1 127 20.4
2004-02-10 14:18:14 51°17.901 2°40.164 231.7 2.1 83 19.3
2004-02-10 14:19:15 51°17.91 2°40.235 209.8 2.8 75 19.2
2004-02-10 14:20:16 51°17.88 2°40.256 227.9 4.1 215 17.7
2004-02-10 14:21:14 51°17.871 2°40.202 254.3 0.5 51 19.8
2004-02-10 14:22:15 51°17.873 2°40.236 233.3 1.7 81 18.4
2004-02-10 14:23:15 51°17.879 2°40.3 209.4 2.8 80 18.8
2004-02-10 14:24:16 51°17.849 2°40.339 218.4 3 186 18.7
2004-02-10 14:25:14 51°17.816 2°40.331 240.4 1 123 18.2
2004-02-10 14:26:14 51°17.819 2°40.371 256.9 2 78 17.3
2004-02-10 14:27:16 51°17.83 2°40.436 267.9 2.7 71 18
2004-02-10 14:28:15 51°17.83 2°40.4 262.1 4.7 259 15.9
2004-02-10 14:29:16 51°17.803 2°40.234 255.9 7 253 15.8
2004-02-10 14:30:15 51°17.787 2°40.097 251.8 2 249 18
2004-02-10 14:31:14 51°17.779 2°40.121 226.4 1.8 93 16.1
2004-02-10 14:32:15 51°17.781 2°40.179 210.2 2.3 85 19
2004-02-10 14:33:14 51°17.787 2°40.249 186.2 3.2 81 15.7
2004-02-10 14:34:15 51°17.798 2°40.321 165 2.7 74 18.6
2004-02-10 14:35:15 51°17.803 2°40.395 162.1 2.9 97 18.3
2004-02-10 14:36:16 51°17.777 2°40.454 202 3 174 18.6
2004-02-10 14:37:16 51°17.772 2°40.357 283.7 5.9 286 17.1
2004-02-10 14:38:14 51°17.793 2°40.18 300.1 6.7 315 18.7
2004-02-10 14:39:15 51°17.874 2°40.085 293.9 5.5 304 20.7
2004-02-10 14:40:14 51°17.9 2°39.981 284.3 4.4 296 21.6
2004-02-10 14:41:14 51°17.899 2°39.93 235.4 2 206 22.4
2004-02-10 14:42:14 51°17.886 2°39.941 239.5 1.3 85 22
2004-02-10 14:43:15 51°17.892 2°39.981 246 1.7 74 21.5
2004-02-10 14:44:16 51°17.903 2°40.027 253.5 2 62 20.8
2004-02-10 14:45:16 51°17.894 2°39.951 263.5 6.5 269 21.8
2004-02-10 14:46:15 51°17.963 2°39.797 322.2 7.5 332 17.8
2004-02-10 14:47:14 51°18.009 2°39.728 273.4 2.1 294 21.9
2004-02-10 14:48:15 51°17.989 2°39.704 229.5 1.1 157 22.1
2004-02-10 14:49:15 51°17.99 2°39.752 221.3 2.4 86 18.3
2004-02-10 14:50:15 51°17.999 2°39.82 191.9 2.8 76 16.9
2004-02-10 14:51:16 51°17.986 2°39.893 192.8 3.3 151 20.1
2004-02-10 14:52:14 51°17.964 2°39.861 278 3.2 303 16.8
2004-02-10 14:53:16 51°18.082 2°39.861 357.1 10.8 7 15.9
2004-02-10 14:54:15 51°18.308 2°39.922 16.2 15.1 17 27.6
2004-02-10 14:55:15 51°18.543 2°40.068 26.1 15.2 20 26.8
2004-02-10 14:56:16 51°18.778 2°40.228 24.9 15 20 25.7
2004-02-10 14:57:15 51°19.003 2°40.385 22.7 14.8 24 22.3
2004-02-10 14:58:15 51°19.237 2°40.542 20.7 15.4 22 21
2004-02-10 14:59:15 51°19.473 2°40.693 22.5 15.6 23 17
2004-02-10 15:00:15 51°19.709 2°40.855 19.5 15.4 25 21.4
2004-02-10 15:01:15 51°19.942 2°41.004 22.1 14.9 22 23.7
2004-02-10 15:02:15 51°20.178 2°41.162 21 15.6 20 23.2
2004-02-10 15:03:15 51°20.415 2°41.312 20.6 14 23 23.4
2004-02-10 15:04:15 51°20.499 2°41.517 100.3 7.5 88 23
2004-02-10 15:05:15 51°20.451 2°41.632 189.4 3.4 145 23.9
2004-02-10 15:06:15 51°20.418 2°41.646 238.2 1.5 215 24.2
2004-02-10 15:07:15 51°20.412 2°41.61 253.3 1.3 273 24.2
2004-02-10 15:08:15 51°20.403 2°41.55 251.2 1 254 23.5
2004-02-10 15:09:16 51°20.413 2°41.563 262.3 1.4 54 23.1
2004-02-10 15:10:15 51°20.432 2°41.596 267.7 2.1 42 24.3
2004-02-10 15:11:15 51°20.457 2°41.636 277 1.9 38 23.5
2004-02-10 15:12:15 51°20.48 2°41.663 268.8 1.4 26 23.1
2004-02-10 15:13:15 51°20.499 2°41.666 266.7 1 356 22.6
2004-02-10 15:14:15 51°20.508 2°41.672 244.8 0.8 66 22.5
2004-02-10 15:15:15 51°20.513 2°41.694 237.5 0.7 68 22.9
2004-02-10 15:16:15 51°20.516 2°41.714 245.3 0.5 78 23.2
2004-02-10 15:17:15 51°20.521 2°41.718 255.9 0.4 359 23.5
2004-02-10 15:18:15 51°20.526 2°41.703 252.2 0.5 283 23.3
2004-02-10 15:19:15 51°20.528 2°41.704 242.5 0.4 88 23.2
2004-02-10 15:20:15 51°20.528 2°41.726 228.5 1 90 23.1
2004-02-10 15:21:15 51°20.525 2°41.761 222 1.6 102 23.1
2004-02-10 15:22:15 51°20.524 2°41.807 213.9 1.8 92 22.6
2004-02-10 15:23:16 51°20.521 2°41.864 201.5 2.1 99 22.8
2004-02-10 15:24:16 51°20.515 2°41.92 197.9 2.4 102 22.7
2004-02-10 15:25:16 51°20.487 2°41.949 219.8 3.7 198 21.7
2004-02-10 15:26:16 51°20.477 2°41.801 264.9 7.8 264 22.3
2004-02-10 15:27:15 51°20.471 2°41.634 257.6 4.2 261 23.2
2004-02-10 15:28:15 51°20.447 2°41.583 240.1 1.6 211 23.8
2004-02-10 15:29:15 51°20.448 2°41.597 247.8 1.1 70 24.2
2004-02-10 15:30:15 51°20.456 2°41.625 244.9 0.8 71 23.8
2004-02-10 15:31:16 51°20.409 2°41.575 229 7.3 223 24.3
2004-02-10 15:32:15 51°20.287 2°41.416 215 10.8 207 24.3
2004-02-10 15:33:15 51°20.148 2°41.318 218.2 6.2 209 24.6
2004-02-10 15:34:15 51°20.088 2°41.265 217 3.4 195 24
2004-02-10 15:35:15 51°20.065 2°41.25 241.1 0.3 93 24.3
2004-02-10 15:36:15 51°20.067 2°41.275 234.4 1.4 74 23.8
2004-02-10 15:37:15 51°20.066 2°41.307 237.9 1 109 22.8
2004-02-10 15:38:15 51°20.066 2°41.311 252.5 0.4 290 22.6
2004-02-10 15:39:16 51°20.071 2°41.3 260.3 0.4 321 22.9
2004-02-10 15:40:15 51°20.083 2°41.297 264.9 1 2 23.2
2004-02-10 15:41:16 51°20.094 2°41.271 253.8 1.6 261 24
2004-02-10 15:42:15 51°20.09 2°41.242 252.8 0.8 237 24.2
2004-02-10 15:43:16 51°20.094 2°41.234 257.6 0.5 358 24.3
2004-02-10 15:44:15 51°20.103 2°41.237 254.9 0.4 41 24.2
2004-02-10 15:45:15 51°20.107 2°41.243 245.5 0.3 66 24.4
2004-02-10 15:46:15 51°20.108 2°41.253 238.9 0.3 92 24
2004-02-10 15:47:15 51°20.104 2°41.274 228.8 1.3 111 24.1
2004-02-10 15:48:15 51°20.101 2°41.308 222.4 1.3 117 23.3
2004-02-10 15:49:15 51°20.092 2°41.305 246.9 0.6 273 23.1
2004-02-10 15:50:16 51°20.08 2°41.3 238.2 0.8 198 23.3
2004-02-10 15:51:15 51°20.073 2°41.311 233.3 0.7 106 22.6
2004-02-10 15:52:15 51°20.062 2°41.318 232.8 2.7 215 22.2
2004-02-10 15:53:16 51°19.98 2°41.204 222.7 8.5 210 21
2004-02-10 15:54:15 51°19.862 2°41.069 225.9 9 211 23.2
2004-02-10 15:55:15 51°19.755 2°40.995 228.9 4.8 217 23.2
2004-02-10 15:56:15 51°19.71 2°40.92 239 3.4 234 23.1
2004-02-10 15:57:15 51°19.698 2°40.886 244.3 0.1 49 20
2004-02-10 15:58:15 51°19.701 2°40.902 236.4 0.8 65 21
2004-02-10 15:59:15 51°19.704 2°40.94 221.6 1.7 81 22.7
2004-02-10 16:00:15 51°19.695 2°40.967 225.2 1.2 182 21.7
2004-02-10 16:01:16 51°19.685 2°40.956 240.9 0.5 197 22
2004-02-10 16:02:15 51°19.679 2°40.964 228.4 0.7 125 22.1
2004-02-10 16:03:16 51°19.661 2°40.965 228.4 2.6 220 22.5
2004-02-10 16:04:15 51°19.674 2°40.879 285.2 4.6 298 20.7
2004-02-10 16:05:16 51°19.682 2°40.847 240.4 0.3 89 21.5
2004-02-10 16:06:16 51°19.685 2°40.865 238 1 65 21.2
2004-02-10 16:07:15 51°19.693 2°40.902 229.6 1.5 77 20.2
2004-02-10 16:08:15 51°19.693 2°40.928 230.2 0.8 104 22.4
2004-02-10 16:09:16 51°19.692 2°40.94 240.5 0.4 110 22.5
2004-02-10 16:10:15 51°19.697 2°40.941 260 0.7 20 22.8
2004-02-10 16:11:16 51°19.719 2°40.945 281.1 1.3 4 21.9
2004-02-10 16:12:15 51°19.739 2°40.956 262.1 1.3 30 21.2
2004-02-10 16:13:16 51°19.75 2°40.964 247 0.7 274 21.4
2004-02-10 16:14:16 51°19.689 2°40.947 182.8 6.5 166 22.5
2004-02-10 16:15:15 51°19.588 2°41.164 130.6 13.2 116 20.4
2004-02-10 16:16:15 51°19.476 2°41.498 127.6 14.4 118 22.2
2004-02-10 16:17:16 51°19.354 2°41.832 130.1 14.4 123 23.9
2004-02-10 16:18:16 51°19.239 2°42.167 128.3 14.7 114 25.4
2004-02-10 16:19:15 51°19.122 2°42.495 130.1 14.5 118 25.8
2004-02-10 16:20:15 51°18.999 2°42.827 129.8 14.5 116 26.3
2004-02-10 16:21:15 51°18.883 2°43.165 129.1 14.4 113 25.8
2004-02-10 16:22:15 51°18.772 2°43.509 127.1 14.8 111 25.2
2004-02-10 16:23:15 51°18.663 2°43.85 124.9 14.1 112 24.6
2004-02-10 16:24:15 51°18.561 2°44.198 124.6 14.5 110 14.6
2004-02-10 16:25:15 51°18.46 2°44.549 127.1 14.2 115 15.3
2004-02-10 16:26:15 51°18.352 2°44.894 125 14.1 117 21
2004-02-10 16:27:15 51°18.25 2°45.236 125.3 14.4 113 22
2004-02-10 16:28:15 51°18.155 2°45.588 121.8 14.3 114 21.2
2004-02-10 16:29:15 51°18.059 2°45.94 122 14.3 120 19.2
2004-02-10 16:30:15 51°17.964 2°46.291 126.1 14.6 111 18.4
2004-02-10 16:31:15 51°17.858 2°46.633 124.4 14.4 113 17.9
2004-02-10 16:32:15 51°17.769 2°46.987 124.7 14.3 113 13.4
2004-02-10 16:33:15 51°17.674 2°47.331 120.9 14.2 111 13.7
2004-02-10 16:34:15 51°17.581 2°47.667 123.6 13.9 115 13.6
2004-02-10 16:35:15 51°17.482 2°48.001 122.7 14 113 11.7
2004-02-10 16:36:15 51°17.381 2°48.35 124.6 14.4 114 11.7
2004-02-10 16:37:15 51°17.289 2°48.701 125.1 14.8 117 13.2
2004-02-10 16:38:15 51°17.173 2°49.029 131.2 14.3 117 13.4
2004-02-10 16:39:15 51°17.034 2°49.323 140.2 14 130 13.4
2004-02-10 16:40:15 51°16.882 2°49.599 139.3 14.3 125 11.2
2004-02-10 16:41:15 51°16.731 2°49.874 139.3 13.9 130 15.9
2004-02-10 16:42:15 51°16.575 2°50.148 143.1 13.9 134 13.2
2004-02-10 16:43:15 51°16.418 2°50.413 145.4 13 136 11.5
2004-02-10 16:44:15 51°16.263 2°50.682 138.3 14.3 127 12
2004-02-10 16:45:15 51°16.126 2°50.982 137.7 13.7 129 13.6
2004-02-10 16:46:15 51°15.989 2°51.292 133.3 14 125 15
2004-02-10 16:47:15 51°15.859 2°51.613 134.2 14.3 123 15.1
2004-02-10 16:48:15 51°15.73 2°51.928 131.2 14.2 123 14.9
2004-02-10 16:49:15 51°15.601 2°52.239 133.1 13.9 127 14.4
2004-02-10 16:50:15 51°15.464 2°52.543 133.5 13.9 127 13.8
2004-02-10 16:51:15 51°15.355 2°52.771 138.2 10.6 129 13.3
2004-02-10 16:52:15 51°15.228 2°53.047 132.6 13.7 119 12.8
2004-02-10 16:53:15 51°15.086 2°53.335 135 13.8 125 11.9
2004-02-10 16:54:15 51°14.958 2°53.646 133.7 14.1 125 11.8
2004-02-10 16:55:15 51°14.824 2°53.957 132.3 14.6 120 11.6
2004-02-10 16:56:16 51°14.68 2°54.263 135.6 14.5 127 12.4
2004-02-10 16:57:15 51°14.543 2°54.564 131.9 14.3 122 12.6
2004-02-10 16:58:15 51°14.426 2°54.898 128.5 14.1 118 12.6